00 34 699226041 (Spain) or 020 719 329 49 (UK) casaroc96@gmail.com

March 31st
Only missed 3 days in March – Spring now really here, poppies flowering on the bancales, everything growing, I´ve even got half a dozen potatoes up! We´ve already had  a couple of meals from the broad beans. The best time of the year starts now. But it still hasn´t rained anywhere near enough.

March 11th
Rainfall figures are once again unreliable due to large beetles in the rain gauge. I haven´t had the tools to hand to dismantle it, so rain figures as from a few days ago are  inaccurate. I´ll post them as XX until I get it fixed.

March 5th
So that was February – a little over 70,0mm of rain, a low of 2,5º in the early hours of the 25th, 24 days without rain and a peak of 23,7ºc on the 2nd. there were three consecutive days with gusts of wind over 80 kph, 12th, 13th and 14th.

 

Today Since last reading / previous 24 hours
Date Time Temp
ºc
Wind
dir.
Wind
kph

Press
ure
mb

Humid
ity
%
Max
Temp
Min
Temp
Wind Rain
mm
              ºc Time ºc Time Dir. Kph Time  
1/4/13 08:52 12,6 W 16,2 996 56 17,0 16,31 12,3 08:18 NNW 40,7 08:47 1,0
31/3/13 10:13* 14,3 SSW 3,2 1006 50 19,8 17:36 13,8 04:44 WNW 55,8 09:48 0,0
30/3/13 08:12 15,2 WNW 20,5 1005 47 18,6 20:45 15,1 07:26 WNW 49,3 04:07 0,0
29/3/13 19:20 18,3 SSW 10,4 1000 46 20,5 16:19 14,6 08:27 WSW 40,7 16:30 0,0
28/3/13 08:26 14,7 NNE 10,8 1003 51 21,2 15:35 14,2 07:16 N 43,6 02:55 0,0
27/3/13 08:11 14,5 SW 9,4 1000 53 19,6 18:34 14,2 07:28 WSW 38,9 07:50 0,0
26/3/13 07:46 14,7 SW 20,5 1003 57 17,3 14:44 10,3 07:18 WSW 43,9 09:38 0,0
25/3/13 07:16 10,4 SSE 4,7 1004 54 15,9 18:16 10,4 06:21 NW 42,1 19:52 0,0
24/3/13 18:15 15,9 W 7,9 999 36 16,8 17:02 10,1 03:42 NW 44,6 13,22 0,0
23/3/13 08:17 13,1 SW 9,7 1002 48 15,6 21:38 12,4 07:15 SW 21,2 16:36 0,0
22/3/13 19:47 14,9 N 0,0 1002 60 18,9 17:15 11,1 03:53 SW 21,2 16:36 0,0
21/3/13 08:08 11,7 NNE 0,0 1014 48 17,2 12:28 10,4 07:04 SSW 20,2 14:15 0,0
20/3/13 08:10 13,7 W 8,6 1000 55 17,4 12:42 11,9 06:11 WNW 37,1 06:11 0,0
19/3/13 08:52 11,7 SW 0,0 1002 51 18,5 17:17 10,2 07:15 SW 40,3 15:23 0,0
18/3/13 08:24 10,9 W 3,6 1000 48 19,0 16:06 10,9 04:28 WNW 38,9 04:28 3,2
17/3/13 07:27 13,6 SE 4,3 1000 50 15,1 15:31 9,6 22:16 WSW 17,6 13:13 0,0
16/3/13 09:40 11,1 SW 2,2 1010 47 15,5 16:55 7,4 08:04 WNW 41,4 08:43 0,0
15/3/13 07:30 7,6 WNW 38,2 1009 38 13,5 16:30 4,3 07:37 WSW 49,0 09:17 0,0
14/3/13 07:20 04,5 WNW 28,8 1003 33 11,3 16:36 4,3 02:45 W 69,1 22:41 0,0
13/3/13 15:45 10,7 N 13,7 994 34 13,3 15:25 7,4 09:00 WNW 52,2 04:28 1,0
12/3/13 15:23 13,4 WSW 15,5 998 38 15,4 17:47 9,3 07:50 WSW 38,9 01:58 XX
11/3/13 12:00 15,1 WSW 20,2 1001 37 18,9 18:10 9,4 04:57 SSW 51,8 13:31 XX
9/3/13 13:09 17,5 WSW 6,8 1004 44 19,9 17:19 13,6 08:10 WSW 20,6 12:31 XX
8/3/13 13:53 19,2 SSE 2,3 1004 40 19,5 13:50 13,0 19:56 SW 26,4 11:34 XX
7/3/13 12:06 15,3 SW 3,6 1004 60 18,3 16:55 9,9 03:44 SW 46,8 16:35 XX
5/3/13 11:27 13,8 SSW 3,2 992 95 14,5 10:52 9,9 07:57 ESE 37,8 21:34 35,8
4/3/13 10:41 11,9 W 11,9 1001 65 12,7 15:20 7,9 01:41 ENE 17,6 06:37 0,0
3/3/13 15:19 12,7 SSW 4,0 1008 57 14,3 14:23 8,1 0:27 WSW 15,5 16:33 0,0
1/3/13 16:42 6,4 NW 2,5 1004 73 8,6 16:50 3,0 04:53 WSW 31,3 17:18 7,3